Time;durP1;ratioP1;P1;durP2;ratioP2;P2;SDS_P1;SDS_P2;PMS_P1;PMS_P2;Temp;Humidity;BMP_temperature;BMP_pressure;BME280_temperature;BME280_humidity;BME280_pressure;Samples;Min_cycle;Max_cycle;Signal;HPM_P1;HPM_P2
2021/01/08 00:01:41;;;;;;;9.80;7.90;;;5.90;99.50;;;;;;5053510;28;20630;-75
2021/01/08 00:04:07;;;;;;;9.07;7.93;;;5.90;99.50;;;;;;5052963;28;20185;-76
2021/01/08 00:06:34;;;;;;;9.25;7.80;;;5.90;99.40;;;;;;5053135;28;20202;-75
2021/01/08 00:09:00;;;;;;;9.18;8.13;;;5.90;99.40;;;;;;5053330;28;20261;-74
2021/01/08 00:11:26;;;;;;;9.20;8.20;;;5.90;99.40;;;;;;5053149;28;20265;-74
2021/01/08 00:13:52;;;;;;;9.00;8.03;;;5.90;99.50;;;;;;5049442;28;20237;-74
2021/01/08 00:16:18;;;;;;;8.60;7.72;;;5.90;99.50;;;;;;5052398;28;20395;-74
2021/01/08 00:18:44;;;;;;;9.50;8.33;;;5.90;99.60;;;;;;5053523;28;20201;-74
2021/01/08 00:21:10;;;;;;;9.02;8.13;;;5.90;99.60;;;;;;5053059;28;20534;-76
2021/01/08 00:23:36;;;;;;;9.53;8.50;;;5.90;99.60;;;;;;5045893;28;20221;-73
2021/01/08 00:26:01;;;;;;;10.47;9.10;;;5.90;99.60;;;;;;5039928;28;20831;-74
2021/01/08 00:28:27;;;;;;;9.27;8.27;;;5.80;99.60;;;;;;5052145;28;20210;-74
2021/01/08 00:30:53;;;;;;;10.90;9.30;;;5.80;99.80;;;;;;5053655;28;20235;-74
2021/01/08 00:33:19;;;;;;;8.67;7.77;;;5.80;99.80;;;;;;5051535;28;20697;-74
2021/01/08 00:35:45;;;;;;;10.30;9.00;;;5.90;99.90;;;;;;5053301;28;20281;-74
2021/01/08 00:38:11;;;;;;;10.37;8.70;;;5.80;99.90;;;;;;5052887;28;20196;-76
2021/01/08 00:40:37;;;;;;;9.05;7.85;;;5.70;99.90;;;;;;5052914;28;20177;-74
2021/01/08 00:43:03;;;;;;;10.50;8.95;;;5.70;99.90;;;;;;5053382;28;20188;-74
2021/01/08 00:45:29;;;;;;;8.90;8.00;;;5.70;99.90;;;;;;5052657;28;20920;-73
2021/01/08 00:47:55;;;;;;;9.90;8.00;;;5.70;99.90;;;;;;5036143;28;20228;-74
2021/01/08 00:50:21;;;;;;;8.83;7.60;;;5.80;99.90;;;;;;5045941;28;20181;-74
2021/01/08 00:52:47;;;;;;;10.27;8.23;;;5.80;99.90;;;;;;5052843;28;20185;-74
2021/01/08 00:55:13;;;;;;;9.00;8.13;;;5.80;99.90;;;;;;5050952;28;20219;-76
2021/01/08 00:57:39;;;;;;;8.40;7.50;;;5.70;99.90;;;;;;5053693;28;20174;-72
2021/01/08 01:00:06;;;;;;;11.32;8.52;;;5.80;99.90;;;;;;5053115;28;20178;-74
2021/01/08 01:02:35;;;;;;;9.68;7.90;;;5.80;99.90;;;;;;5052279;28;20170;-74
2021/01/08 01:05:02;;;;;;;9.30;8.10;;;5.80;99.90;;;;;;5052983;28;20201;-74
2021/01/08 01:07:28;;;;;;;9.80;8.30;;;5.90;99.90;;;;;;5052191;28;20207;-74
2021/01/08 01:09:53;;;;;;;9.20;7.70;;;5.90;99.90;;;;;;5052102;28;20173;-74
2021/01/08 01:12:19;;;;;;;10.63;8.60;;;5.90;99.90;;;;;;5010734;28;20178;-74
2021/01/08 01:14:45;;;;;;;10.20;8.47;;;5.90;99.90;;;;;;5050971;28;20213;-74
2021/01/08 01:17:11;;;;;;;9.83;8.20;;;5.90;99.90;;;;;;5053209;28;20181;-76
2021/01/08 01:19:37;;;;;;;8.70;7.80;;;5.90;99.90;;;;;;5052359;28;20178;-74
2021/01/08 01:22:03;;;;;;;8.93;8.02;;;5.90;99.90;;;;;;5052742;28;20495;-74
2021/01/08 01:24:29;;;;;;;8.52;7.63;;;5.90;99.90;;;;;;5051997;28;20185;-74
2021/01/08 01:27:00;;;;;;;8.80;7.90;;;5.90;99.90;;;;;;5051453;28;20177;-74
2021/01/08 01:29:26;;;;;;;9.52;7.43;;;5.90;99.90;;;;;;5051401;28;20680;-74
2021/01/08 01:31:52;;;;;;;7.72;6.90;;;5.90;99.90;;;;;;5057511;28;20542;-74
2021/01/08 01:34:19;;;;;;;9.17;7.90;;;6.00;99.90;;;;;;5037029;28;20270;-75
2021/01/08 01:36:45;;;;;;;9.65;8.15;;;5.90;99.90;;;;;;5061733;28;20430;-73
2021/01/08 01:39:13;;;;;;;10.02;8.07;;;5.90;99.90;;;;;;5057866;28;20174;-76
2021/01/08 01:41:40;;;;;;;9.73;7.38;;;5.90;99.90;;;;;;5052395;28;20182;-74
2021/01/08 01:44:06;;;;;;;9.95;7.95;;;5.90;99.90;;;;;;5052161;28;20630;-74
2021/01/08 01:46:33;;;;;;;8.87;7.70;;;5.90;99.90;;;;;;5061174;28;20181;-74
2021/01/08 01:48:59;;;;;;;9.50;8.20;;;5.90;99.90;;;;;;5071212;28;20235;-74
2021/01/08 01:51:26;;;;;;;8.27;6.82;;;5.90;99.90;;;;;;5071289;28;20568;-74
2021/01/08 01:53:52;;;;;;;8.27;7.05;;;5.90;99.90;;;;;;5058662;28;20214;-74
2021/01/08 01:56:18;;;;;;;8.83;7.20;;;5.80;99.90;;;;;;5051594;28;20303;-74
2021/01/08 01:58:43;;;;;;;7.15;6.45;;;5.80;99.90;;;;;;5049181;28;20428;-74
2021/01/08 02:01:12;;;;;;;8.13;7.20;;;5.80;99.90;;;;;;5051758;28;20384;-74
2021/01/08 02:03:52;;;;;;;8.30;7.43;;;5.80;99.90;;;;;;5052465;28;20173;-74
2021/01/08 02:06:21;;;;;;;7.97;7.28;;;5.90;99.90;;;;;;5051445;28;20520;-74
2021/01/08 02:08:53;;;;;;;8.18;7.20;;;5.90;99.90;;;;;;5052421;28;20268;-74
2021/01/08 02:11:24;;;;;;;7.53;6.82;;;5.90;99.90;;;;;;5051382;28;20158;-75
2021/01/08 02:14:09;;;;;;;9.00;8.10;;;5.90;99.90;;;;;;5051738;28;20202;-74
2021/01/08 02:16:37;;;;;;;7.32;6.57;;;5.90;99.90;;;;;;5053455;28;20196;-75
2021/01/08 02:19:06;;;;;;;8.45;7.45;;;5.90;99.90;;;;;;5061689;28;20207;-75
2021/01/08 02:21:38;;;;;;;7.80;6.85;;;5.90;99.90;;;;;;5051946;28;20182;-75
2021/01/08 02:24:14;;;;;;;7.57;6.75;;;6.00;99.90;;;;;;5063502;28;20633;-74
2021/01/08 02:26:42;;;;;;;8.23;7.38;;;6.00;99.90;;;;;;5055292;28;20184;-74
2021/01/08 02:29:08;;;;;;;9.40;7.80;;;6.00;99.90;;;;;;5051872;28;20185;-74
2021/01/08 02:31:34;;;;;;;8.17;7.37;;;6.00;99.90;;;;;;5050991;28;20965;-74
2021/01/08 02:34:00;;;;;;;8.52;7.63;;;6.00;99.90;;;;;;5051831;28;20464;-74
2021/01/08 02:36:26;;;;;;;7.80;7.00;;;5.90;99.90;;;;;;5082894;28;20236;-74
2021/01/08 02:38:53;;;;;;;8.27;7.47;;;6.00;99.90;;;;;;5051990;28;20740;-74
2021/01/08 02:41:21;;;;;;;8.00;7.20;;;6.00;99.90;;;;;;5050953;28;20206;-75
2021/01/08 02:43:47;;;;;;;8.55;7.53;;;6.00;99.90;;;;;;5049884;28;20202;-75
2021/01/08 02:46:13;;;;;;;8.40;7.60;;;6.10;99.90;;;;;;5049214;28;20174;-74
2021/01/08 02:48:39;;;;;;;7.82;6.97;;;6.00;99.90;;;;;;5050852;28;20383;-75
2021/01/08 02:51:05;;;;;;;7.30;6.60;;;6.00;99.90;;;;;;5051646;28;20184;-74
2021/01/08 02:53:32;;;;;;;7.68;6.88;;;6.00;99.90;;;;;;5050761;28;20218;-74
2021/01/08 02:56:10;;;;;;;8.45;7.30;;;6.00;99.90;;;;;;5051662;28;20174;-74
2021/01/08 02:58:38;;;;;;;8.35;7.50;;;6.00;99.90;;;;;;5054784;28;20166;-74
2021/01/08 03:01:05;;;;;;;9.45;7.97;;;6.00;99.90;;;;;;5055384;28;20188;-74
2021/01/08 03:03:31;;;;;;;9.00;7.43;;;6.00;99.90;;;;;;5054375;28;20178;-74
2021/01/08 03:05:59;;;;;;;8.90;7.97;;;6.00;99.90;;;;;;5055260;28;20174;-74
2021/01/08 03:08:26;;;;;;;8.50;7.22;;;6.00;99.90;;;;;;5054548;28;20408;-74
2021/01/08 03:10:52;;;;;;;9.57;7.90;;;6.00;99.90;;;;;;5055210;28;20170;-74
2021/01/08 03:13:18;;;;;;;8.60;7.70;;;6.00;99.90;;;;;;5054576;28;20177;-76
2021/01/08 03:15:44;;;;;;;8.40;7.25;;;6.00;99.80;;;;;;5067818;28;20192;-74
2021/01/08 03:18:10;;;;;;;8.67;7.77;;;6.10;99.90;;;;;;5073908;28;20173;-74
2021/01/08 03:20:35;;;;;;;8.77;7.53;;;6.00;99.90;;;;;;5074362;28;20177;-74
2021/01/08 03:23:03;;;;;;;9.03;7.80;;;6.00;99.90;;;;;;5070758;28;20304;-74
2021/01/08 03:25:29;;;;;;;8.70;7.80;;;6.00;99.90;;;;;;5058607;28;20185;-74
2021/01/08 03:27:55;;;;;;;10.40;8.23;;;6.00;99.90;;;;;;5071916;28;20207;-74
2021/01/08 03:30:21;;;;;;;9.97;8.40;;;6.00;99.90;;;;;;5074175;28;20673;-76
2021/01/08 03:32:47;;;;;;;10.27;8.73;;;6.00;99.90;;;;;;5074878;28;20173;-74
2021/01/08 03:35:12;;;;;;;11.27;9.37;;;6.00;99.90;;;;;;5074743;28;20433;-74
2021/01/08 03:37:38;;;;;;;11.23;8.90;;;6.00;99.90;;;;;;5055771;28;20228;-74
2021/01/08 03:40:06;;;;;;;10.37;8.43;;;6.00;99.90;;;;;;5064942;28;20224;-75
2021/01/08 03:42:32;;;;;;;10.35;8.95;;;6.00;99.90;;;;;;5061586;28;20181;-75
2021/01/08 03:44:58;;;;;;;11.30;9.38;;;6.00;99.90;;;;;;5063886;28;20184;-74
2021/01/08 03:47:23;;;;;;;10.60;9.30;;;6.00;99.90;;;;;;5061064;28;20177;-75
2021/01/08 03:49:49;;;;;;;11.57;10.33;;;6.00;99.90;;;;;;5054681;28;20174;-74
2021/01/08 03:52:15;;;;;;;12.07;9.63;;;6.00;99.90;;;;;;5053437;28;20175;-74
2021/01/08 03:54:41;;;;;;;12.90;10.27;;;6.00;99.90;;;;;;5053775;28;20252;-74
2021/01/08 03:57:06;;;;;;;12.60;10.60;;;6.00;99.90;;;;;;5053216;28;20185;-74
2021/01/08 03:59:32;;;;;;;13.03;10.23;;;6.00;99.90;;;;;;5053472;28;20182;-74
2021/01/08 04:01:58;;;;;;;13.67;10.40;;;6.00;99.90;;;;;;5052841;28;20185;-74
2021/01/08 04:04:24;;;;;;;14.07;10.57;;;6.00;99.90;;;;;;5053103;28;20182;-76
2021/01/08 04:06:52;;;;;;;15.67;11.80;;;6.00;99.90;;;;;;5054620;28;20178;-74
2021/01/08 04:09:21;;;;;;;12.27;9.95;;;5.90;99.90;;;;;;5054190;28;20424;-75
2021/01/08 04:11:47;;;;;;;15.15;11.57;;;5.90;99.90;;;;;;5053803;28;20174;-75
2021/01/08 04:14:13;;;;;;;15.07;11.63;;;6.00;99.90;;;;;;5054049;28;20235;-75
2021/01/08 04:16:41;;;;;;;15.45;12.52;;;6.00;99.90;;;;;;5085126;28;20237;-75
2021/01/08 04:19:08;;;;;;;16.10;11.07;;;5.90;99.90;;;;;;5053474;28;20184;-74
2021/01/08 04:21:34;;;;;;;14.68;11.45;;;5.90;99.90;;;;;;5053179;28;20166;-75
2021/01/08 04:24:00;;;;;;;13.50;10.38;;;5.90;99.90;;;;;;5052319;28;20193;-75
2021/01/08 04:26:26;;;;;;;17.55;12.10;;;5.90;99.90;;;;;;5053167;28;20186;-75
2021/01/08 04:28:51;;;;;;;14.37;11.20;;;5.90;99.90;;;;;;5053578;28;20200;-75
2021/01/08 04:31:17;;;;;;;17.20;12.10;;;5.90;99.90;;;;;;5053903;28;20227;-75
2021/01/08 04:33:44;;;;;;;15.67;12.00;;;6.00;99.90;;;;;;5052687;28;20317;-75
2021/01/08 04:36:10;;;;;;;14.25;10.93;;;5.90;99.90;;;;;;5052293;28;20230;-74
2021/01/08 04:38:37;;;;;;;15.65;12.13;;;5.90;99.90;;;;;;5052955;28;20174;-75
2021/01/08 04:41:05;;;;;;;15.35;10.90;;;6.00;99.90;;;;;;5053507;28;20185;-75
2021/01/08 04:43:32;;;;;;;13.50;10.10;;;6.00;99.90;;;;;;5052627;28;20178;-75
2021/01/08 04:46:05;;;;;;;14.05;11.93;;;6.00;99.90;;;;;;5085930;28;20184;-75
2021/01/08 04:48:32;;;;;;;13.55;12.07;;;6.00;99.90;;;;;;5052613;28;20182;-74
2021/01/08 04:51:03;;;;;;;12.73;11.25;;;6.00;99.90;;;;;;5052239;28;20265;-74
2021/01/08 04:53:30;;;;;;;13.32;10.60;;;6.00;99.90;;;;;;5052302;28;20304;-75
2021/01/08 04:56:02;;;;;;;13.20;10.43;;;6.00;99.90;;;;;;5053480;28;20316;-75
2021/01/08 04:58:32;;;;;;;13.70;10.15;;;6.10;99.90;;;;;;5052667;28;20194;-75
2021/01/08 05:00:59;;;;;;;13.23;11.40;;;6.10;99.90;;;;;;5053001;28;20626;-75
2021/01/08 05:03:25;;;;;;;11.45;9.15;;;6.10;99.90;;;;;;5052269;28;20193;-76
2021/01/08 05:05:50;;;;;;;9.60;8.53;;;6.10;99.90;;;;;;5053211;28;20170;-75
2021/01/08 05:08:16;;;;;;;9.50;8.33;;;6.10;99.90;;;;;;5051909;28;20207;-75
2021/01/08 05:10:43;;;;;;;9.40;8.03;;;6.00;99.90;;;;;;5052291;28;20899;-75
2021/01/08 05:13:09;;;;;;;12.07;9.27;;;6.00;99.90;;;;;;5053202;28;20253;-74
2021/01/08 05:15:35;;;;;;;10.50;8.93;;;6.00;99.90;;;;;;5051620;28;20281;-74
2021/01/08 05:18:01;;;;;;;11.47;8.47;;;5.90;99.90;;;;;;5051694;28;20181;-74
2021/01/08 05:20:26;;;;;;;11.63;10.05;;;5.90;99.90;;;;;;5050160;28;20186;-77
2021/01/08 05:22:52;;;;;;;10.87;8.67;;;5.90;99.90;;;;;;5052134;28;20192;-74
2021/01/08 05:25:18;;;;;;;9.70;8.17;;;5.90;99.90;;;;;;5052829;28;20182;-74
2021/01/08 05:27:44;;;;;;;14.07;9.63;;;5.90;99.90;;;;;;5051958;28;20254;-74
2021/01/08 05:30:17;;;;;;;12.73;8.90;;;6.00;99.90;;;;;;5052675;28;20530;-74
2021/01/08 05:32:44;;;;;;;11.27;9.48;;;6.00;99.90;;;;;;5051816;28;20177;-75
2021/01/08 05:35:20;;;;;;;11.75;10.07;;;6.00;99.90;;;;;;5051432;28;20232;-74
2021/01/08 05:37:46;;;;;;;10.32;8.98;;;6.00;99.90;;;;;;5050168;28;20217;-74
2021/01/08 05:40:13;;;;;;;11.27;8.80;;;6.00;99.90;;;;;;5052800;28;20208;-75
2021/01/08 05:43:08;;;;;;;10.98;9.20;;;6.00;99.90;;;;;;5051445;28;20185;-74
2021/01/08 05:45:34;;;;;;;12.95;8.65;;;6.00;99.90;;;;;;5042909;28;20201;-75
2021/01/08 05:48:03;;;;;;;13.13;8.90;;;6.00;99.90;;;;;;5051997;28;20178;-74
2021/01/08 05:50:29;;;;;;;10.23;8.38;;;6.00;99.90;;;;;;5051544;28;20632;-76
2021/01/08 05:53:07;;;;;;;11.68;9.73;;;6.00;99.90;;;;;;5052444;28;20188;-75
2021/01/08 05:55:40;;;;;;;11.60;8.65;;;6.00;99.90;;;;;;5043949;28;20208;-75
2021/01/08 05:58:23;;;;;;;11.82;8.88;;;6.00;99.90;;;;;;5047896;28;20181;-76
2021/01/08 06:01:02;;;;;;;11.38;8.93;;;6.00;99.90;;;;;;5049516;28;20617;-75
2021/01/08 06:03:28;;;;;;;9.65;7.88;;;6.00;99.90;;;;;;5052495;28;20683;-76
2021/01/08 06:05:56;;;;;;;10.88;8.55;;;6.00;99.90;;;;;;5052568;28;20174;-75
2021/01/08 06:08:30;;;;;;;9.02;7.25;;;6.00;99.90;;;;;;5052446;28;20253;-74
2021/01/08 06:10:58;;;;;;;11.35;8.40;;;6.00;99.90;;;;;;5051645;28;20182;-74
2021/01/08 06:13:31;;;;;;;10.15;8.25;;;6.00;99.90;;;;;;5052079;28;20209;-74
2021/01/08 06:15:57;;;;;;;11.65;8.43;;;6.00;99.90;;;;;;5052073;28;20188;-75
2021/01/08 06:18:27;;;;;;;11.20;8.68;;;6.00;99.90;;;;;;5051758;28;20201;-75
2021/01/08 06:21:03;;;;;;;11.55;9.82;;;5.90;99.90;;;;;;5051297;28;20208;-75
2021/01/08 06:23:36;;;;;;;11.35;8.57;;;5.90;99.90;;;;;;5051512;28;20177;-76
2021/01/08 06:26:04;;;;;;;9.68;8.50;;;5.90;99.90;;;;;;5051724;28;20644;-75
2021/01/08 06:28:38;;;;;;;9.80;8.30;;;5.90;99.90;;;;;;5050975;28;20205;-77
2021/01/08 06:31:06;;;;;;;8.82;7.93;;;6.00;99.90;;;;;;5051788;28;20194;-75
2021/01/08 06:33:36;;;;;;;10.13;7.95;;;5.90;99.90;;;;;;5055553;28;20205;-77
2021/01/08 06:36:18;;;;;;;10.73;8.90;;;5.90;99.90;;;;;;5055342;28;20170;-76
2021/01/08 06:38:47;;;;;;;8.38;7.47;;;6.00;99.90;;;;;;5045524;28;20170;-75
2021/01/08 06:41:14;;;;;;;8.75;7.82;;;6.00;99.90;;;;;;5055778;28;20242;-75
2021/01/08 06:43:56;;;;;;;8.85;7.95;;;6.00;99.90;;;;;;5058898;28;20200;-75
2021/01/08 06:46:28;;;;;;;8.13;7.32;;;6.00;99.90;;;;;;5055870;28;20221;-75
2021/01/08 06:48:55;;;;;;;9.50;8.00;;;6.00;99.90;;;;;;5058541;28;20630;-75
2021/01/08 06:51:30;;;;;;;9.65;7.90;;;6.00;99.90;;;;;;5057767;28;20630;-75
2021/01/08 06:53:58;;;;;;;9.00;7.75;;;6.00;99.90;;;;;;5055192;28;20213;-75
2021/01/08 06:56:29;;;;;;;9.70;7.68;;;6.00;99.90;;;;;;5053105;28;20174;-75
2021/01/08 06:58:55;;;;;;;9.43;7.85;;;6.00;99.90;;;;;;5050481;28;20268;-75
2021/01/08 07:01:43;;;;;;;10.63;9.63;;;6.00;99.90;;;;;;5056089;28;20177;-75
2021/01/08 07:04:12;;;;;;;7.28;6.57;;;6.00;99.90;;;;;;5055424;28;20253;-75
2021/01/08 07:06:39;;;;;;;8.53;7.23;;;6.00;99.90;;;;;;5053661;28;20162;-75
2021/01/08 07:09:06;;;;;;;8.30;7.50;;;6.00;99.90;;;;;;5055550;28;20388;-75
2021/01/08 07:11:33;;;;;;;7.63;6.65;;;6.00;99.90;;;;;;5054572;28;20615;-77
2021/01/08 07:14:14;;;;;;;8.25;7.00;;;6.00;99.90;;;;;;5055115;28;20254;-75
2021/01/08 07:16:45;;;;;;;7.93;7.22;;;6.00;99.90;;;;;;5054241;28;20687;-75
2021/01/08 07:19:17;;;;;;;8.35;7.45;;;6.00;99.90;;;;;;5054835;28;20173;-75
2021/01/08 07:21:53;;;;;;;6.65;5.90;;;6.00;99.90;;;;;;5049586;28;20186;-75
2021/01/08 07:24:30;;;;;;;8.85;7.40;;;6.00;99.90;;;;;;5054452;28;20177;-73
2021/01/08 07:27:14;;;;;;;7.93;7.22;;;6.00;99.90;;;;;;5050925;28;20399;-73
2021/01/08 07:29:40;;;;;;;11.35;9.25;;;6.00;99.90;;;;;;5054532;28;20185;-73
2021/01/08 07:32:06;;;;;;;8.77;7.88;;;6.00;99.90;;;;;;5055195;28;20525;-73
2021/01/08 07:34:36;;;;;;;10.10;8.20;;;6.00;99.90;;;;;;5054575;28;20214;-74
2021/01/08 07:37:02;;;;;;;9.15;8.13;;;6.10;99.90;;;;;;5054727;28;20228;-73
2021/01/08 07:39:39;;;;;;;10.05;7.90;;;6.10;99.90;;;;;;5052910;28;20540;-73
2021/01/08 07:42:53;;;;;;;9.05;7.90;;;6.10;99.90;;;;;;5052867;28;20205;-73
2021/01/08 07:45:20;;;;;;;10.32;8.38;;;6.20;99.90;;;;;;5039906;28;20186;-77
2021/01/08 07:47:46;;;;;;;10.32;9.20;;;6.20;99.90;;;;;;5041442;28;20186;-76
2021/01/08 07:50:14;;;;;;;10.40;8.67;;;6.20;99.90;;;;;;5052971;28;20312;-76
2021/01/08 07:52:42;;;;;;;9.52;8.18;;;6.20;99.90;;;;;;5053133;28;20388;-76
2021/01/08 07:55:10;;;;;;;11.10;8.90;;;6.20;99.80;;;;;;5053271;28;20288;-76
2021/01/08 07:58:02;;;;;;;11.63;9.60;;;6.20;99.80;;;;;;5051924;28;20415;-77
2021/01/08 08:00:28;;;;;;;12.75;9.40;;;6.20;99.70;;;;;;5053672;28;20638;-77
2021/01/08 08:02:58;;;;;;;12.40;9.00;;;6.20;99.70;;;;;;5053118;28;20189;-77
2021/01/08 08:05:29;;;;;;;10.52;8.20;;;6.20;99.80;;;;;;5050454;28;20934;-77
2021/01/08 08:07:57;;;;;;;11.10;8.83;;;6.20;99.70;;;;;;5046514;28;20523;-77
2021/01/08 08:10:25;;;;;;;11.80;9.70;;;6.20;99.70;;;;;;5053049;28;20390;-75
2021/01/08 08:12:52;;;;;;;11.40;9.20;;;6.20;99.70;;;;;;5051818;28;20739;-76
2021/01/08 08:15:22;;;;;;;12.13;9.20;;;6.30;99.70;;;;;;5052483;28;20769;-76
2021/01/08 08:17:48;;;;;;;12.37;11.10;;;6.30;99.80;;;;;;5052056;28;20424;-76
2021/01/08 08:20:18;;;;;;;10.60;8.80;;;6.50;99.90;;;;;;5052407;28;20486;-75
2021/01/08 08:22:43;;;;;;;12.50;11.30;;;6.80;99.70;;;;;;5034166;28;20853;-77
2021/01/08 08:25:30;;;;;;;11.20;9.33;;;7.00;99.20;;;;;;5052913;28;20455;-75
2021/01/08 08:28:00;;;;;;;11.67;10.47;;;7.40;98.70;;;;;;5048215;28;20219;-77
2021/01/08 08:30:29;;;;;;;10.90;9.80;;;7.60;97.80;;;;;;5051859;28;20445;-78
2021/01/08 08:32:57;;;;;;;9.70;7.50;;;7.90;97.30;;;;;;5052947;28;21046;-77
2021/01/08 08:35:22;;;;;;;11.90;10.70;;;8.10;96.60;;;;;;5053109;28;20870;-76
2021/01/08 08:37:57;;;;;;;10.17;9.00;;;8.20;96.30;;;;;;5030286;28;645805;-76
2021/01/08 08:40:30;;;;;;;11.07;9.93;;;8.40;95.80;;;;;;5053400;28;20427;-80
2021/01/08 08:42:57;;;;;;;9.27;8.20;;;8.60;95.60;;;;;;5053122;28;20411;-80
2021/01/08 08:45:31;;;;;;;9.47;8.27;;;8.80;95.50;;;;;;5053865;28;20415;-80
2021/01/08 08:47:59;;;;;;;10.33;8.33;;;9.00;95.00;;;;;;5053264;28;20424;-80
2021/01/08 08:50:25;;;;;;;9.50;8.57;;;9.30;94.40;;;;;;5050949;28;20467;-81
2021/01/08 08:52:52;;;;;;;10.03;9.03;;;9.50;94.00;;;;;;5053755;28;20435;-82
2021/01/08 08:55:24;;;;;;;10.93;9.80;;;9.60;93.50;;;;;;5050591;28;20551;-80
2021/01/08 08:57:58;;;;;;;9.23;8.43;;;9.80;93.00;;;;;;5052316;28;20478;-80
2021/01/08 09:00:24;;;;;;;10.00;9.00;;;9.90;92.70;;;;;;5051749;28;20785;-81
2021/01/08 09:02:50;;;;;;;11.03;9.87;;;10.00;91.80;;;;;;5052883;28;20472;-81
2021/01/08 09:05:15;;;;;;;10.60;9.60;;;10.10;91.60;;;;;;5052836;28;20185;-81
2021/01/08 09:07:45;;;;;;;10.10;9.10;;;10.20;91.40;;;;;;5052469;28;20633;-81
2021/01/08 09:10:18;;;;;;;8.60;7.90;;;10.20;91.20;;;;;;5065636;28;20513;-81
2021/01/08 09:12:48;;;;;;;9.50;8.60;;;10.30;90.90;;;;;;5041146;28;20915;-81
2021/01/08 09:15:28;;;;;;;10.13;9.20;;;10.30;90.70;;;;;;5052615;28;20566;-82
2021/01/08 09:18:20;;;;;;;9.20;8.23;;;10.50;90.70;;;;;;5051748;28;20403;-82
2021/01/08 09:21:21;;;;;;;13.40;10.30;;;10.50;90.20;;;;;;5051802;28;20436;-82
2021/01/08 09:23:49;;;;;;;8.63;7.73;;;10.60;90.10;;;;;;5047298;28;20586;-82
2021/01/08 09:26:18;;;;;;;9.63;8.50;;;10.70;89.90;;;;;;5052951;28;20988;-82
2021/01/08 09:28:46;;;;;;;9.00;8.20;;;10.80;89.50;;;;;;5064900;28;20412;-82
2021/01/08 09:31:13;;;;;;;9.30;8.50;;;10.70;89.20;;;;;;5057672;28;20425;-83
2021/01/08 09:33:39;;;;;;;8.17;7.40;;;10.80;89.50;;;;;;5050688;28;20470;-83
2021/01/08 09:36:06;;;;;;;8.70;8.00;;;10.90;89.20;;;;;;5052198;28;20513;-84
2021/01/08 09:38:33;;;;;;;8.73;8.03;;;11.00;89.90;;;;;;5053009;28;20619;-83
2021/01/08 09:41:37;;;;;;;8.63;7.83;;;11.20;89.20;;;;;;5051209;28;20416;-83
2021/01/08 09:44:05;;;;;;;8.73;8.03;;;11.30;88.30;;;;;;5050106;28;20429;-82
2021/01/08 09:46:31;;;;;;;8.53;7.57;;;11.40;87.50;;;;;;5050483;28;20905;-83
2021/01/08 09:49:07;;;;;;;8.30;7.60;;;11.60;89.60;;;;;;5051120;28;20431;-82
2021/01/08 09:51:33;;;;;;;7.73;7.07;;;11.70;87.90;;;;;;5052963;28;20793;-77
2021/01/08 09:53:58;;;;;;;7.43;6.87;;;11.80;86.60;;;;;;5050818;28;20483;-75
2021/01/08 09:56:24;;;;;;;8.07;7.30;;;11.90;86.60;;;;;;5051035;28;20184;-75
2021/01/08 09:59:18;;;;;;;7.80;7.10;;;11.70;85.20;;;;;;5051577;28;20169;-76
2021/01/08 10:01:58;;;;;;;7.80;7.10;;;11.30;84.80;;;;;;5057596;28;20249;-85
2021/01/08 10:04:34;;;;;;;7.13;6.53;;;10.90;85.10;;;;;;5057854;28;20407;-75
2021/01/08 10:07:03;;;;;;;7.20;6.50;;;10.40;86.50;;;;;;5056258;28;20579;-75
2021/01/08 10:09:52;;;;;;;6.93;6.33;;;10.00;87.60;;;;;;5057864;28;20840;-75
2021/01/08 10:12:19;;;;;;;7.20;6.60;;;9.60;90.50;;;;;;5062130;28;20890;-75
2021/01/08 10:14:45;;;;;;;7.90;7.20;;;9.20;91.50;;;;;;5051337;28;20460;-76
2021/01/08 10:17:17;;;;;;;7.53;6.50;;;8.90;92.50;;;;;;5052123;28;20407;-75
2021/01/08 10:19:46;;;;;;;7.60;6.73;;;8.70;93.10;;;;;;5050739;28;20431;-77
2021/01/08 10:22:11;;;;;;;7.90;7.20;;;8.50;93.50;;;;;;5048133;28;20426;-76
2021/01/08 10:24:37;;;;;;;5.83;5.33;;;8.30;93.90;;;;;;5050550;28;20418;-76
2021/01/08 10:27:04;;;;;;;6.43;5.83;;;8.10;94.30;;;;;;5050933;28;20192;-76
2021/01/08 10:29:40;;;;;;;7.67;6.97;;;8.00;94.50;;;;;;5052093;28;20418;-75
2021/01/08 10:32:10;;;;;;;6.50;5.90;;;7.90;95.00;;;;;;5032390;28;20399;-75
2021/01/08 10:34:37;;;;;;;8.13;5.97;;;7.80;95.50;;;;;;5037940;28;20469;-75
2021/01/08 10:37:04;;;;;;;8.17;7.00;;;7.70;95.90;;;;;;5050886;28;20483;-75
2021/01/08 10:39:30;;;;;;;5.30;4.80;;;7.60;96.20;;;;;;5051514;28;20517;-78
2021/01/08 10:41:56;;;;;;;5.27;4.77;;;7.60;96.60;;;;;;5050352;28;20476;-79
2021/01/08 10:44:21;;;;;;;6.90;6.30;;;7.50;96.60;;;;;;5049649;28;20537;-76
2021/01/08 10:46:47;;;;;;;7.10;6.43;;;7.50;96.60;;;;;;5049378;28;20179;-75
2021/01/08 10:49:13;;;;;;;7.07;6.47;;;7.40;96.90;;;;;;5050955;28;20179;-77
2021/01/08 10:51:39;;;;;;;6.43;5.70;;;7.40;96.90;;;;;;5049804;28;20191;-77
2021/01/08 10:54:05;;;;;;;7.23;6.50;;;7.30;96.90;;;;;;5050922;28;20736;-75
2021/01/08 10:56:30;;;;;;;6.30;5.70;;;7.30;97.00;;;;;;5051623;28;20273;-75
2021/01/08 10:58:57;;;;;;;6.50;6.00;;;7.30;97.30;;;;;;5051102;28;20417;-75
2021/01/08 11:01:23;;;;;;;7.37;6.77;;;7.30;97.40;;;;;;5050667;28;20396;-76
2021/01/08 11:03:49;;;;;;;6.27;5.70;;;7.20;97.20;;;;;;5050170;28;20401;-76
2021/01/08 11:06:17;;;;;;;6.90;6.40;;;7.20;97.30;;;;;;5050188;28;20393;-75
2021/01/08 11:08:42;;;;;;;6.70;6.20;;;7.20;97.20;;;;;;5051557;28;20751;-77
2021/01/08 11:11:08;;;;;;;7.40;6.80;;;7.20;97.20;;;;;;5052093;28;20390;-75
2021/01/08 11:13:34;;;;;;;6.60;6.00;;;7.20;97.50;;;;;;5051873;28;20179;-76
2021/01/08 11:16:00;;;;;;;6.57;5.97;;;7.10;97.80;;;;;;5051412;28;20711;-75
2021/01/08 11:18:26;;;;;;;4.67;4.27;;;7.10;97.80;;;;;;5052430;28;20650;-76
2021/01/08 11:20:51;;;;;;;8.30;4.80;;;7.10;97.60;;;;;;5054695;28;20191;-76
2021/01/08 11:23:17;;;;;;;5.23;4.73;;;7.10;97.60;;;;;;5054704;28;20391;-76
2021/01/08 11:25:43;;;;;;;5.97;5.47;;;7.10;97.70;;;;;;5054734;28;20179;-77
2021/01/08 11:28:09;;;;;;;6.10;5.50;;;7.10;97.80;;;;;;5054743;28;20229;-73
2021/01/08 11:30:35;;;;;;;5.30;4.80;;;7.10;97.60;;;;;;5054588;28;20749;-73
2021/01/08 11:33:00;;;;;;;6.10;5.60;;;7.10;97.60;;;;;;5052640;28;20205;-75
2021/01/08 11:35:26;;;;;;;4.83;4.43;;;7.10;97.40;;;;;;5053753;28;20210;-73
2021/01/08 11:37:53;;;;;;;6.47;4.87;;;7.00;97.10;;;;;;5053960;28;20305;-74
2021/01/08 11:40:18;;;;;;;6.80;5.93;;;6.90;97.10;;;;;;5055054;28;20186;-73
2021/01/08 11:42:44;;;;;;;4.90;4.50;;;6.90;97.20;;;;;;5053390;28;20409;-77
2021/01/08 11:45:10;;;;;;;6.90;6.30;;;6.90;97.10;;;;;;5055050;28;20193;-74
2021/01/08 11:47:36;;;;;;;5.03;4.53;;;6.90;97.30;;;;;;5054996;28;20534;-73
2021/01/08 11:50:04;;;;;;;5.73;5.03;;;6.90;97.10;;;;;;5054649;28;20402;-78
2021/01/08 11:52:30;;;;;;;6.03;5.50;;;6.90;97.20;;;;;;5054931;28;20171;-75
2021/01/08 11:54:56;;;;;;;8.30;5.00;;;6.90;97.40;;;;;;5053822;28;20210;-75
2021/01/08 11:57:21;;;;;;;6.00;5.40;;;6.90;98.00;;;;;;5054840;28;20809;-75
2021/01/08 11:59:47;;;;;;;5.40;4.90;;;6.90;97.50;;;;;;5054179;28;20254;-73
2021/01/08 12:02:13;;;;;;;5.70;5.20;;;6.90;97.50;;;;;;5054453;28;20174;-74
2021/01/08 12:04:38;;;;;;;6.10;5.60;;;6.90;97.50;;;;;;5054753;28;20561;-74
2021/01/08 12:07:04;;;;;;;7.23;6.53;;;6.90;97.50;;;;;;5053609;28;20265;-74
2021/01/08 12:09:31;;;;;;;7.03;6.43;;;7.00;97.70;;;;;;5054667;28;20179;-74
2021/01/08 12:12:03;;;;;;;6.63;5.50;;;6.90;98.10;;;;;;5054008;28;20528;-75
2021/01/08 12:14:31;;;;;;;7.70;7.00;;;6.80;98.20;;;;;;5054130;28;20468;-75
2021/01/08 12:17:04;;;;;;;10.17;9.20;;;6.70;98.70;;;;;;5053764;28;20770;-75
2021/01/08 12:19:30;;;;;;;7.00;6.20;;;6.70;98.80;;;;;;5054475;28;20383;-75
2021/01/08 12:21:56;;;;;;;5.85;5.10;;;6.70;98.90;;;;;;5053784;28;20468;-75
2021/01/08 12:24:22;;;;;;;8.10;5.77;;;6.70;99.00;;;;;;5054610;28;20179;-73
2021/01/08 12:26:51;;;;;;;6.60;6.00;;;6.70;99.00;;;;;;5053710;28;20183;-73
2021/01/08 12:29:17;;;;;;;6.00;5.50;;;6.70;99.00;;;;;;5052985;28;20236;-72
2021/01/08 12:31:43;;;;;;;8.17;6.13;;;6.60;99.00;;;;;;5054410;28;20391;-73
2021/01/08 12:34:09;;;;;;;6.40;5.80;;;6.60;99.00;;;;;;5053131;28;20213;-73
2021/01/08 12:36:35;;;;;;;6.32;5.70;;;6.60;99.20;;;;;;5053838;28;20223;-72
2021/01/08 12:39:01;;;;;;;6.40;5.60;;;6.60;98.90;;;;;;5053208;28;20178;-73
2021/01/08 12:41:30;;;;;;;7.00;5.90;;;6.60;98.70;;;;;;5054128;28;20174;-72
2021/01/08 12:43:56;;;;;;;5.75;5.13;;;6.60;98.50;;;;;;5053288;28;20394;-74
2021/01/08 12:46:22;;;;;;;6.03;5.53;;;6.70;98.30;;;;;;5053952;28;20228;-73
2021/01/08 12:48:48;;;;;;;6.23;5.53;;;6.70;98.30;;;;;;5053851;28;20400;-75
2021/01/08 12:51:17;;;;;;;5.83;4.90;;;6.70;98.50;;;;;;5053473;28;20209;-75
2021/01/08 12:53:44;;;;;;;8.77;5.23;;;6.70;98.40;;;;;;5053733;28;20499;-75
2021/01/08 12:56:10;;;;;;;6.65;6.05;;;6.70;98.50;;;;;;5053143;28;20413;-75
2021/01/08 12:58:36;;;;;;;8.93;5.90;;;6.70;98.80;;;;;;5053668;28;20179;-75